This is the latest recevied weather packets stored in our database for station/object HA3KE-10. If no packets are shown the sender has not sent any weather packets the latest 10 day(s).
| Time | Temp. | Humidity | Pressure | Rain* | Wind** | Luminosity | Snow |
|---|---|---|---|---|---|---|---|
| 1777778383 | 12.22° C | 48% | 1020.4 hPa | - | - | - | - |
| 1777777483 | 12.22° C | 48% | 1020.4 hPa | - | - | - | - |
| 1777776583 | 12.22° C | 48% | 1020.3 hPa | - | - | - | - |
| 1777775683 | 12.22° C | 48% | 1020.3 hPa | - | - | - | - |
| 1777774783 | 12.22° C | 48% | 1020.4 hPa | - | - | - | - |
| 1777769382 | 12.22° C | 46% | 1020.3 hPa | - | - | - | - |
| 1777762181 | 13.89° C | 44% | 1020.9 hPa | - | - | - | - |
| 1777761283 | 13.89° C | 44% | 1020.9 hPa | - | - | - | - |
| 1777758583 | 14.44° C | 43% | 1020.8 hPa | - | - | - | - |
| 1777757683 | 14.44° C | 44% | 1020.9 hPa | - | - | - | - |
| 1777756783 | 15° C | 42% | 1020.7 hPa | - | - | - | - |
| 1777753182 | 16.67° C | 38% | 1020.8 hPa | - | - | - | - |
| 1777752282 | 17.22° C | 35% | 1020.8 hPa | - | - | - | - |
| 1777751382 | 17.22° C | 36% | 1020.7 hPa | - | - | - | - |
| 1777749581 | 18.89° C | 34% | 1020.6 hPa | - | - | - | - |
| 1777748681 | 18.89° C | 33% | 1020.5 hPa | - | - | - | - |
| 1777746881 | 18.33° C | 36% | 1020.2 hPa | - | - | - | - |
| 1777745981 | 19.44° C | 34% | 1020.1 hPa | - | - | - | - |
| 1777745081 | 20° C | 33% | 1020 hPa | - | - | - | - |
| 1777744181 | 20.56° C | 33% | 1019.9 hPa | - | - | - | - |
| 1777743280 | 21.67° C | 31% | 1019.9 hPa | - | - | - | - |
| 1777739683 | 24.44° C | 27% | 1020.2 hPa | - | - | - | - |
| 1777738782 | 25° C | 27% | 1020.2 hPa | - | - | - | - |
| 1777737882 | 25° C | 27% | 1020.4 hPa | - | - | - | - |
| 1777736982 | 25.56° C | 27% | 1020.5 hPa | - | - | - | - |
* Rain since midnight (hover to see other rain measurements)
** Current wind speed in m/s (hover to see current wind gust speed)